createdAt,value
2018-04-16T00:00:01.348Z,33.10
2018-04-16T00:02:30.957Z,38.00
2018-04-16T00:04:58.264Z,35.30
2018-04-16T00:07:26.247Z,43.67
2018-04-16T00:09:54.087Z,39.80
2018-04-16T00:12:25.197Z,39.03
2018-04-16T00:14:54.280Z,38.73
2018-04-16T00:17:20.818Z,45.03
2018-04-16T00:19:47.265Z,42.07
2018-04-16T00:22:13.683Z,46.60
2018-04-16T00:24:40.076Z,49.90
2018-04-16T00:27:07.269Z,46.23
2018-04-16T00:29:33.676Z,42.07
2018-04-16T00:32:07.042Z,47.67
2018-04-16T00:34:39.423Z,40.30
2018-04-16T00:37:11.833Z,36.53
2018-04-16T00:39:44.427Z,41.77
2018-04-16T00:42:16.868Z,50.30
2018-04-16T00:44:49.980Z,39.63
2018-04-16T00:47:22.648Z,48.03
2018-04-16T00:49:55.752Z,37.83
2018-04-16T00:52:28.101Z,37.07
2018-04-16T00:55:12.964Z,39.70
2018-04-16T00:57:46.108Z,40.90
2018-04-16T01:00:18.514Z,44.37
2018-04-16T01:02:51.272Z,44.77
2018-04-16T01:05:23.911Z,47.93
2018-04-16T01:07:56.398Z,47.53
2018-04-16T01:10:29.757Z,44.00
2018-04-16T01:13:03.030Z,46.30
2018-04-16T01:15:35.488Z,49.83
2018-04-16T01:18:08.147Z,51.63
2018-04-16T01:20:40.811Z,45.73
2018-04-16T01:23:25.989Z,48.10
2018-04-16T01:25:58.547Z,44.57
2018-04-16T01:28:44.004Z,47.17
2018-04-16T01:31:16.601Z,46.90
2018-04-16T01:33:49.777Z,54.73
2018-04-16T01:36:23.134Z,53.23
2018-04-16T01:38:55.504Z,53.30
2018-04-16T01:41:28.083Z,55.10
2018-04-16T01:44:00.777Z,50.93
2018-04-16T01:46:33.424Z,55.10
2018-04-16T01:49:05.819Z,56.40
2018-04-16T01:51:38.165Z,64.83
2018-04-16T01:54:10.568Z,55.00
2018-04-16T01:56:42.914Z,55.70
2018-04-16T01:59:15.496Z,67.10
2018-04-16T02:01:48.164Z,58.07
2018-04-16T02:04:20.617Z,57.40
2018-04-16T02:06:53.993Z,60.70
2018-04-16T02:09:26.609Z,55.23
2018-04-16T02:11:59.279Z,49.60
2018-04-16T02:14:46.586Z,47.07
2018-04-16T02:17:19.951Z,52.50
2018-04-16T02:19:52.608Z,58.33
2018-04-16T02:22:25.020Z,61.40
2018-04-16T02:24:57.656Z,52.47
2018-04-16T02:27:29.935Z,62.50
2018-04-16T02:30:02.300Z,54.07
2018-04-16T02:32:34.971Z,46.07
2018-04-16T02:35:07.533Z,52.93
2018-04-16T02:37:39.938Z,56.73
2018-04-16T02:40:23.151Z,50.83
2018-04-16T02:42:55.811Z,52.53
2018-04-16T02:45:28.259Z,55.23
2018-04-16T02:48:01.440Z,56.27
2018-04-16T02:50:34.637Z,62.47
2018-04-16T02:53:07.813Z,60.03
2018-04-16T02:55:40.148Z,58.97
2018-04-16T02:58:23.405Z,55.70
2018-04-16T03:00:56.041Z,62.27
2018-04-16T03:03:28.376Z,55.17
2018-04-16T03:06:01.568Z,55.83
2018-04-16T03:08:34.762Z,53.30
2018-04-16T03:11:19.627Z,61.20
2018-04-16T03:13:52.819Z,58.70
2018-04-16T03:16:25.181Z,61.80
2018-04-16T03:18:58.384Z,54.13
2018-04-16T03:21:31.841Z,69.87
2018-04-16T03:24:04.265Z,56.77
2018-04-16T03:26:36.616Z,55.10
2018-04-16T03:29:09.267Z,65.20
2018-04-16T03:31:41.880Z,62.83
2018-04-16T03:34:14.494Z,55.57
2018-04-16T03:36:46.827Z,67.70
2018-04-16T03:39:20.196Z,65.13
2018-04-16T03:41:52.610Z,61.87
2018-04-16T03:44:25.748Z,56.10
2018-04-16T03:46:58.160Z,47.77
2018-04-16T03:49:31.254Z,53.00
2018-04-16T03:52:13.397Z,60.70
2018-04-16T03:54:39.831Z,55.40
2018-04-16T03:57:06.252Z,59.57
2018-04-16T03:59:32.686Z,58.13
2018-04-16T04:01:59.093Z,52.43
2018-04-16T04:04:25.516Z,73.43
2018-04-16T04:06:51.908Z,59.90
2018-04-16T04:09:18.359Z,56.40
2018-04-16T04:11:44.761Z,71.50
2018-04-16T04:14:11.161Z,57.97
2018-04-16T04:16:38.301Z,64.30
2018-04-16T04:19:04.689Z,68.20
2018-04-16T04:21:31.124Z,59.83
2018-04-16T04:24:09.875Z,59.30
2018-04-16T04:26:48.541Z,67.07
2018-04-16T04:29:27.264Z,66.57
2018-04-16T04:31:53.717Z,55.40
2018-04-16T04:34:20.122Z,64.33
2018-04-16T04:36:46.523Z,61.40
2018-04-16T04:39:13.091Z,64.83
2018-04-16T04:41:39.534Z,117.43
2018-04-16T04:44:05.943Z,66.87
2018-04-16T04:46:33.072Z,53.83
2018-04-16T04:49:00.235Z,63.93
2018-04-16T04:51:27.390Z,52.20
2018-04-16T04:53:53.795Z,67.37
2018-04-16T04:56:20.196Z,51.00
2018-04-16T04:58:46.576Z,54.90
2018-04-16T05:01:12.979Z,69.57
2018-04-16T05:03:39.413Z,70.93
2018-04-16T05:06:05.816Z,57.83
2018-04-16T05:08:32.226Z,59.30
2018-04-16T05:10:58.626Z,63.63
2018-04-16T05:13:25.108Z,59.10
2018-04-16T05:15:51.563Z,67.50
2018-04-16T05:18:17.983Z,63.77
2018-04-16T05:20:44.388Z,55.73
2018-04-16T05:23:11.531Z,63.77
2018-04-16T05:25:38.681Z,55.37
2018-04-16T05:28:05.874Z,68.63
2018-04-16T05:30:32.323Z,65.43
2018-04-16T05:32:58.849Z,65.80
2018-04-16T05:35:25.320Z,55.50
2018-04-16T05:37:51.809Z,68.43
2018-04-16T05:40:18.945Z,67.00
2018-04-16T05:42:46.095Z,62.13
2018-04-16T05:45:12.499Z,56.17
2018-04-16T05:47:39.669Z,64.10
2018-04-16T05:50:06.077Z,65.50
2018-04-16T05:52:33.234Z,63.33
2018-04-16T05:55:00.377Z,62.40
2018-04-16T05:57:26.766Z,63.50
2018-04-16T05:59:53.150Z,64.10
2018-04-16T06:02:20.302Z,63.30
2018-04-16T06:04:47.451Z,62.53
2018-04-16T06:07:14.579Z,60.83
2018-04-16T06:09:40.978Z,66.60
2018-04-16T06:12:07.382Z,60.33
2018-04-16T06:14:34.270Z,58.80
2018-04-16T06:17:00.733Z,76.37
2018-04-16T06:19:27.914Z,69.53
2018-04-16T06:21:54.333Z,64.30
2018-04-16T06:24:21.500Z,79.13
2018-04-16T06:26:47.906Z,77.20
2018-04-16T06:29:15.049Z,66.70
2018-04-16T06:31:42.195Z,71.87
2018-04-16T06:34:08.605Z,72.10
2018-04-16T06:36:35.115Z,66.67
2018-04-16T06:39:01.518Z,65.90
2018-04-16T06:41:27.930Z,68.30
2018-04-16T06:43:55.060Z,69.13
2018-04-16T06:46:21.479Z,59.47
2018-04-16T06:48:47.880Z,62.80
2018-04-16T06:51:14.331Z,80.30
2018-04-16T06:53:40.755Z,76.20
2018-04-16T06:56:07.211Z,75.23
2018-04-16T06:58:33.654Z,70.87
2018-04-16T07:01:00.904Z,69.27
2018-04-16T07:03:27.336Z,62.73
2018-04-16T07:05:53.803Z,73.80
2018-04-16T07:08:20.978Z,74.30
2018-04-16T07:10:47.387Z,67.60
2018-04-16T07:13:14.540Z,79.00
2018-04-16T07:15:41.117Z,71.80
2018-04-16T07:18:07.578Z,66.17
2018-04-16T07:20:34.015Z,78.70
2018-04-16T07:23:00.438Z,70.43
2018-04-16T07:25:26.848Z,62.03
2018-04-16T07:27:53.239Z,63.80
2018-04-16T07:30:20.401Z,63.03
2018-04-16T07:32:46.860Z,61.27
2018-04-16T07:35:14.037Z,58.37
2018-04-16T07:37:40.426Z,63.20
2018-04-16T07:40:06.923Z,62.43
2018-04-16T07:42:33.381Z,63.57
2018-04-16T07:45:00.530Z,67.50
2018-04-16T07:47:26.953Z,60.43
2018-04-16T07:49:54.152Z,67.83
2018-04-16T07:52:20.629Z,52.63
2018-04-16T07:54:47.609Z,67.33
2018-04-16T07:57:14.019Z,59.07
2018-04-16T07:59:41.198Z,65.20
2018-04-16T08:02:07.604Z,48.63
2018-04-16T08:04:34.751Z,61.13
2018-04-16T08:07:01.902Z,62.53
2018-04-16T08:09:29.045Z,60.53
2018-04-16T08:11:55.460Z,58.93
2018-04-16T08:14:21.869Z,54.10
2018-04-16T08:16:48.306Z,52.60
2018-04-16T08:19:14.801Z,52.57
2018-04-16T08:21:41.215Z,49.80
2018-04-16T08:24:08.396Z,52.40
2018-04-16T08:26:34.798Z,54.03
2018-04-16T08:29:01.219Z,54.13
2018-04-16T08:31:28.390Z,53.43
2018-04-16T08:33:55.524Z,57.27
2018-04-16T08:36:21.956Z,60.47
2018-04-16T08:38:49.161Z,64.00
2018-04-16T08:41:16.367Z,69.03
2018-04-16T08:43:43.511Z,59.23
2018-04-16T08:46:10.658Z,70.60
2018-04-16T08:48:37.083Z,64.00
2018-04-16T08:51:04.250Z,65.83
2018-04-16T08:53:31.399Z,75.63
2018-04-16T08:55:57.784Z,81.23
2018-04-16T08:58:24.222Z,74.53
2018-04-16T09:00:50.619Z,77.97
2018-04-16T09:03:17.023Z,73.10
2018-04-16T09:05:43.432Z,65.60
2018-04-16T09:08:09.840Z,70.50
2018-04-16T09:10:36.245Z,63.60
2018-04-16T09:13:02.648Z,74.90
2018-04-16T09:15:29.047Z,71.83
2018-04-16T09:17:55.447Z,73.00
2018-04-16T09:20:21.854Z,71.60
2018-04-16T09:22:48.258Z,73.67
2018-04-16T09:25:14.736Z,71.17
2018-04-16T09:27:41.179Z,77.97
2018-04-16T09:30:08.470Z,70.33
2018-04-16T09:32:34.916Z,78.90
2018-04-16T09:35:01.336Z,78.50
2018-04-16T09:37:27.736Z,82.73
2018-04-16T09:39:54.122Z,68.87
2018-04-16T09:42:20.519Z,69.10
2018-04-16T09:44:46.939Z,72.10
2018-04-16T09:47:13.318Z,72.97
2018-04-16T09:49:39.775Z,67.60
2018-04-16T09:52:06.194Z,64.03
2018-04-16T09:54:32.600Z,61.07
2018-04-16T09:56:59.026Z,58.13
2018-04-16T09:59:25.441Z,55.93
2018-04-16T10:01:51.902Z,56.10
2018-04-16T10:04:18.309Z,61.23
2018-04-16T10:06:44.738Z,63.80
2018-04-16T10:09:11.169Z,52.93
2018-04-16T10:11:37.566Z,57.23
2018-04-16T10:14:03.981Z,74.40
2018-04-16T10:16:30.377Z,56.23
2018-04-16T10:18:56.776Z,57.03
2018-04-16T10:21:24.629Z,53.10
2018-04-16T10:23:51.167Z,54.23
2018-04-16T10:26:17.772Z,62.83
2018-04-16T10:28:46.542Z,58.33
2018-04-16T10:31:14.082Z,53.13
2018-04-16T10:33:41.530Z,50.53
2018-04-16T10:36:08.395Z,58.33
2018-04-16T10:38:34.964Z,57.90
2018-04-16T10:41:02.166Z,59.10
2018-04-16T10:43:30.381Z,53.10
2018-04-16T10:45:57.617Z,65.20
2018-04-16T10:48:24.939Z,57.60
2018-04-16T10:51:12.558Z,60.60
2018-04-16T10:54:00.446Z,57.07
2018-04-16T10:56:26.886Z,49.57
2018-04-16T10:58:53.387Z,56.40
2018-04-16T11:01:21.073Z,62.03
2018-04-16T11:03:48.268Z,57.53
2018-04-16T11:06:15.476Z,58.17
2018-04-16T11:08:42.560Z,57.10
2018-04-16T11:11:10.440Z,62.60
2018-04-16T11:13:37.617Z,62.13
2018-04-16T11:16:04.020Z,71.50
2018-04-16T11:18:30.451Z,48.50
2018-04-16T11:20:56.851Z,48.33
2018-04-16T11:23:23.278Z,50.07
2018-04-16T11:25:49.669Z,50.17
2018-04-16T11:28:16.141Z,49.17
2018-04-16T11:30:42.593Z,45.73
2018-04-16T11:33:09.052Z,53.23
2018-04-16T11:35:36.200Z,44.00
2018-04-16T11:38:03.477Z,32.50
2018-04-16T11:40:29.866Z,36.10
2018-04-16T11:42:56.274Z,31.83
2018-04-16T11:45:22.701Z,30.53
2018-04-16T11:47:49.113Z,31.17
2018-04-16T11:50:15.507Z,29.33
2018-04-16T11:52:41.968Z,25.57
2018-04-16T11:55:08.419Z,30.37
2018-04-16T11:57:34.865Z,21.73
2018-04-16T12:00:01.403Z,18.87
2018-04-16T12:02:27.851Z,17.60
2018-04-16T12:04:54.249Z,26.50
2018-04-16T12:07:20.642Z,19.83
2018-04-16T12:09:47.108Z,28.37
2018-04-16T12:12:13.532Z,18.63
2018-04-16T12:14:40.688Z,13.43
2018-04-16T12:17:07.089Z,58.50
2018-04-16T12:19:33.497Z,9.27
2018-04-16T12:21:59.929Z,12.30
2018-04-16T12:24:26.330Z,13.20
2018-04-16T12:26:52.723Z,16.00
2018-04-16T12:29:19.118Z,14.03
2018-04-16T12:31:45.552Z,17.10
2018-04-16T12:34:11.977Z,11.63
2018-04-16T12:36:38.367Z,12.43
2018-04-16T12:39:05.567Z,13.50
2018-04-16T12:41:31.972Z,15.57
2018-04-16T12:43:58.374Z,13.13
2018-04-16T12:46:24.773Z,17.33
2018-04-16T12:48:51.248Z,11.40
2018-04-16T12:51:18.404Z,13.83
2018-04-16T12:53:45.577Z,13.17
2018-04-16T12:56:12.393Z,17.33
2018-04-16T12:58:38.825Z,20.20
2018-04-16T13:01:05.982Z,14.90
2018-04-16T13:03:33.239Z,10.03
2018-04-16T13:06:00.413Z,14.07
2018-04-16T13:08:26.878Z,12.73
2018-04-16T13:10:53.276Z,13.27
2018-04-16T13:13:19.683Z,13.37
2018-04-16T13:15:46.860Z,10.53
2018-04-16T13:18:13.273Z,13.57
2018-04-16T13:20:40.437Z,14.13
2018-04-16T13:23:06.865Z,13.00
2018-04-16T13:25:34.007Z,13.03
2018-04-16T13:28:01.171Z,11.57
2018-04-16T13:30:27.591Z,10.73
2018-04-16T13:32:54.735Z,15.07
2018-04-16T13:35:21.875Z,12.03
2018-04-16T13:37:48.342Z,15.23
2018-04-16T13:40:14.748Z,11.97
2018-04-16T13:42:41.917Z,12.60
2018-04-16T13:45:09.068Z,13.03
2018-04-16T13:47:35.479Z,15.57
2018-04-16T13:50:02.661Z,14.30
2018-04-16T13:52:29.055Z,10.33
2018-04-16T13:54:56.183Z,10.87
2018-04-16T13:57:22.579Z,12.40
2018-04-16T13:59:48.967Z,11.40
2018-04-16T14:02:15.394Z,14.97
2018-04-16T14:04:41.816Z,11.37
2018-04-16T14:07:08.448Z,11.30
2018-04-16T14:09:34.871Z,12.80
2018-04-16T14:12:02.051Z,18.20
2018-04-16T14:14:28.452Z,16.10
2018-04-16T14:16:55.599Z,8.50
2018-04-16T14:19:21.998Z,12.93
2018-04-16T14:21:49.154Z,9.10
2018-04-16T14:24:15.653Z,12.23
2018-04-16T14:26:42.023Z,11.33
2018-04-16T14:29:08.432Z,12.37
2018-04-16T14:31:35.569Z,14.77
2018-04-16T14:34:02.766Z,9.70
2018-04-16T14:36:29.197Z,7.17
2018-04-16T14:38:55.627Z,9.20
2018-04-16T14:41:22.042Z,8.63
2018-04-16T14:43:48.447Z,14.50
2018-04-16T14:46:15.620Z,10.97
2018-04-16T14:48:42.775Z,8.50
2018-04-16T14:51:09.935Z,8.37
2018-04-16T14:53:36.343Z,7.73
2018-04-16T14:56:02.769Z,7.50
2018-04-16T14:58:29.376Z,9.23
2018-04-16T15:00:55.784Z,7.37
2018-04-16T15:03:22.308Z,6.80
2018-04-16T15:05:48.722Z,6.43
2018-04-16T15:08:15.894Z,8.17
2018-04-16T15:10:42.329Z,9.83
2018-04-16T15:13:08.740Z,8.03
2018-04-16T15:15:35.896Z,15.97
2018-04-16T15:18:03.091Z,10.63
2018-04-16T15:20:29.480Z,6.33
2018-04-16T15:22:56.617Z,9.20
2018-04-16T15:25:23.756Z,10.30
2018-04-16T15:27:50.152Z,11.80
2018-04-16T15:30:16.560Z,8.80
2018-04-16T15:32:43.028Z,13.10
2018-04-16T15:35:09.471Z,5.40
2018-04-16T15:37:35.869Z,5.33
2018-04-16T15:40:02.301Z,13.23
2018-04-16T15:42:28.715Z,7.33
2018-04-16T15:44:55.121Z,10.60
2018-04-16T15:47:21.513Z,5.50
2018-04-16T15:49:47.931Z,7.20
2018-04-16T15:52:14.328Z,8.10
2018-04-16T15:54:41.470Z,6.60
2018-04-16T15:57:07.861Z,5.63
2018-04-16T15:59:34.246Z,8.77
2018-04-16T16:02:00.677Z,16.03
2018-04-16T16:04:27.826Z,6.33
2018-04-16T16:06:54.984Z,7.30
2018-04-16T16:09:22.219Z,4.90
2018-04-16T16:11:49.388Z,22.20
2018-04-16T16:14:16.529Z,7.00
2018-04-16T16:16:43.676Z,8.17
2018-04-16T16:19:10.832Z,10.90
2018-04-16T16:21:38.033Z,4.43
2018-04-16T16:24:04.536Z,5.13
2018-04-16T16:26:31.664Z,4.07
2018-04-16T16:28:58.870Z,5.27
2018-04-16T16:31:25.315Z,4.73
2018-04-16T16:33:51.720Z,8.00
2018-04-16T16:36:18.121Z,5.77
2018-04-16T16:38:45.252Z,8.00
2018-04-16T16:41:12.486Z,4.87
2018-04-16T16:43:38.935Z,10.43
2018-04-16T16:46:05.339Z,13.30
2018-04-16T16:48:31.777Z,8.90
2018-04-16T16:50:58.218Z,11.13
2018-04-16T16:53:24.622Z,7.23
2018-04-16T16:55:51.049Z,11.30
2018-04-16T16:58:17.472Z,6.87
2018-04-16T17:00:43.909Z,7.37
2018-04-16T17:03:10.339Z,8.13
2018-04-16T17:05:36.795Z,14.23
2018-04-16T17:08:03.254Z,11.63
2018-04-16T17:10:29.747Z,13.50
2018-04-16T17:12:56.167Z,12.10
2018-04-16T17:15:22.582Z,8.13
2018-04-16T17:17:49.762Z,10.97
2018-04-16T17:20:16.242Z,8.83
2018-04-16T17:22:42.599Z,17.60
2018-04-16T17:25:09.740Z,12.23
2018-04-16T17:27:36.872Z,14.40
2018-04-16T17:30:03.307Z,11.63
2018-04-16T17:32:29.894Z,11.70
2018-04-16T17:34:56.367Z,14.53
2018-04-16T17:37:22.772Z,12.07
2018-04-16T17:39:49.377Z,11.23
2018-04-16T17:42:15.786Z,15.63
2018-04-16T17:44:42.952Z,13.90
2018-04-16T17:47:11.185Z,12.80
2018-04-16T17:49:37.588Z,12.40
2018-04-16T17:52:03.988Z,13.23
2018-04-16T17:54:30.387Z,17.83
2018-04-16T17:56:56.800Z,19.10
2018-04-16T17:59:23.242Z,13.43
2018-04-16T18:01:49.618Z,15.30
2018-04-16T18:04:16.766Z,11.73
2018-04-16T18:06:43.165Z,16.20
2018-04-16T18:09:10.578Z,16.63
2018-04-16T18:11:38.062Z,16.67
2018-04-16T18:14:04.656Z,20.13
2018-04-16T18:16:32.694Z,16.43
2018-04-16T18:18:59.107Z,16.67
2018-04-16T18:21:26.042Z,25.00
2018-04-16T18:23:52.464Z,19.70
2018-04-16T18:26:18.864Z,14.57
2018-04-16T18:28:46.014Z,16.47
2018-04-16T18:31:12.409Z,16.27
2018-04-16T18:33:38.904Z,13.87
2018-04-16T18:36:05.382Z,20.03
2018-04-16T18:38:31.811Z,15.20
2018-04-16T18:40:58.244Z,17.70
2018-04-16T18:43:24.651Z,15.07
2018-04-16T18:45:51.070Z,28.97
2018-04-16T18:48:17.467Z,22.03
2018-04-16T18:50:43.868Z,13.93
2018-04-16T18:53:10.271Z,17.70
2018-04-16T18:55:36.665Z,17.37
2018-04-16T18:58:03.109Z,15.67
2018-04-16T19:00:30.262Z,16.27
2018-04-16T19:02:56.837Z,15.80
2018-04-16T19:05:23.261Z,16.53
2018-04-16T19:07:49.665Z,17.83
2018-04-16T19:10:16.811Z,15.63
2018-04-16T19:12:43.964Z,13.17
2018-04-16T19:15:10.451Z,14.73
2018-04-16T19:17:42.845Z,12.87
2018-04-16T19:20:09.313Z,15.00
2018-04-16T19:22:36.468Z,13.13
2018-04-16T19:25:03.673Z,15.87
2018-04-16T19:27:36.126Z,13.07
2018-04-16T19:30:02.555Z,15.17
2018-04-16T19:32:35.840Z,15.37
2018-04-16T19:35:07.350Z,10.90
2018-04-16T19:37:33.820Z,10.43
2018-04-16T19:40:00.238Z,15.87
2018-04-16T19:42:33.408Z,10.93
2018-04-16T19:44:59.803Z,11.73
2018-04-16T19:47:27.251Z,11.30
2018-04-16T19:49:59.766Z,11.40
2018-04-16T19:52:26.258Z,11.33
2018-04-16T19:54:52.656Z,12.77
2018-04-16T19:57:25.973Z,11.73
2018-04-16T19:59:52.374Z,12.90
2018-04-16T20:02:24.831Z,15.07
2018-04-16T20:04:51.252Z,13.67
2018-04-16T20:07:17.673Z,20.53
2018-04-16T20:09:44.080Z,19.20
2018-04-16T20:12:10.480Z,20.63
2018-04-16T20:14:37.624Z,12.93
2018-04-16T20:17:04.778Z,15.70
2018-04-16T20:19:31.939Z,17.90
2018-04-16T20:21:59.151Z,13.77
2018-04-16T20:24:25.595Z,13.97
2018-04-16T20:26:52.753Z,15.87
2018-04-16T20:29:19.939Z,12.10
2018-04-16T20:31:46.334Z,18.80
2018-04-16T20:34:13.533Z,15.93
2018-04-16T20:36:39.953Z,17.90
2018-04-16T20:39:07.116Z,13.73
2018-04-16T20:41:33.504Z,15.83
2018-04-16T20:43:59.897Z,17.30
2018-04-16T20:46:26.289Z,15.00
2018-04-16T20:48:53.427Z,17.90
2018-04-16T20:51:20.735Z,15.03
2018-04-16T20:53:48.297Z,18.97
2018-04-16T20:56:14.856Z,17.13
2018-04-16T20:58:41.369Z,18.87
2018-04-16T21:01:07.781Z,17.80
2018-04-16T21:03:34.313Z,17.77
2018-04-16T21:06:00.877Z,17.63
2018-04-16T21:13:33.520Z,22.83
2018-04-16T21:16:00.675Z,24.30
2018-04-16T21:18:27.072Z,23.97
2018-04-16T21:20:53.467Z,21.43
2018-04-16T21:23:19.964Z,25.13
2018-04-16T21:25:47.792Z,24.43
2018-04-16T21:28:15.627Z,23.47
2018-04-16T21:30:42.097Z,24.77
2018-04-16T21:33:08.507Z,20.50
2018-04-16T21:35:36.035Z,21.33
2018-04-16T21:38:02.939Z,25.47
2018-04-16T21:40:29.340Z,27.80
2018-04-16T21:42:56.880Z,26.00
2018-04-16T21:45:24.354Z,22.40
2018-04-16T21:47:51.182Z,24.63
2018-04-16T21:50:18.341Z,22.83
2018-04-16T21:52:44.781Z,26.00
2018-04-16T21:55:11.886Z,24.93
2018-04-16T21:57:39.301Z,27.80
2018-04-16T22:00:06.520Z,27.60
2018-04-16T22:02:34.769Z,27.63
2018-04-16T22:05:01.209Z,29.73
2018-04-16T22:07:29.450Z,27.50
2018-04-16T22:09:55.969Z,25.90
2018-04-16T22:12:22.495Z,20.93
2018-04-16T22:14:48.988Z,26.60
2018-04-16T22:17:15.447Z,25.00
2018-04-16T22:19:41.891Z,26.60
2018-04-16T22:22:09.261Z,24.23
2018-04-16T22:24:35.675Z,23.90
2018-04-16T22:27:02.111Z,25.13
2018-04-16T22:29:29.930Z,28.53
2018-04-16T22:31:56.443Z,23.73
2018-04-16T22:34:22.967Z,24.67
2018-04-16T22:36:49.502Z,24.70
2018-04-16T22:39:15.936Z,22.67
2018-04-16T22:41:42.413Z,21.07
2018-04-16T22:44:08.827Z,23.97
2018-04-16T22:46:35.362Z,20.83
2018-04-16T22:49:01.768Z,22.73
2018-04-16T22:51:28.870Z,20.47
2018-04-16T22:53:55.372Z,27.80
2018-04-16T22:56:21.810Z,22.60
2018-04-16T22:58:48.316Z,22.20
2018-04-16T23:01:15.038Z,24.20
2018-04-16T23:03:41.447Z,24.37
2018-04-16T23:06:07.898Z,21.60
2018-04-16T23:08:35.096Z,20.70
2018-04-16T23:11:02.238Z,25.60
2018-04-16T23:13:28.646Z,24.13
2018-04-16T23:15:55.139Z,27.83
2018-04-16T23:18:23.054Z,27.27
2018-04-16T23:20:49.686Z,23.70
2018-04-16T23:23:17.223Z,23.10
2018-04-16T23:25:43.670Z,25.33
2018-04-16T23:28:10.063Z,28.30
2018-04-16T23:30:37.984Z,26.77
2018-04-16T23:33:04.420Z,25.13
2018-04-16T23:35:30.889Z,25.90
2018-04-16T23:37:59.409Z,23.43
2018-04-16T23:40:26.810Z,29.73
2018-04-16T23:42:53.261Z,26.10
2018-04-16T23:45:20.699Z,22.30
2018-04-16T23:47:47.181Z,22.50
2018-04-16T23:50:14.711Z,25.43
2018-04-16T23:52:41.147Z,28.00
2018-04-16T23:55:07.605Z,28.57
2018-04-16T23:57:34.759Z,28.50
